createdAt,value
2022-11-27T00:01:31.358Z,101130.94
2022-11-27T00:03:59.013Z,101133.75
2022-11-27T00:06:27.951Z,101131.97
2022-11-27T00:08:59.919Z,101131.72
2022-11-27T00:11:29.268Z,101127.00
2022-11-27T00:13:56.799Z,101134.78
2022-11-27T00:16:24.885Z,101133.75
2022-11-27T00:18:52.942Z,101132.28
2022-11-27T00:21:24.041Z,101131.84
2022-11-27T00:23:55.401Z,101131.63
2022-11-27T00:26:23.176Z,101128.69
2022-11-27T00:28:51.064Z,101132.94
2022-11-27T00:31:28.571Z,101126.13
2022-11-27T00:33:59.153Z,101131.94
2022-11-27T00:36:31.596Z,101134.87
2022-11-27T00:38:59.209Z,101126.22
2022-11-27T00:41:29.023Z,101135.53
2022-11-27T00:43:56.882Z,101140.50
2022-11-27T00:46:29.078Z,101134.31
2022-11-27T00:48:58.255Z,101139.59
2022-11-27T00:51:26.464Z,101139.25
2022-11-27T00:53:53.897Z,101142.84
2022-11-27T00:56:24.274Z,101149.44
2022-11-27T00:58:52.129Z,101135.78
2022-11-27T01:01:25.054Z,101142.28
2022-11-27T01:03:52.734Z,101152.34
2022-11-27T01:06:20.646Z,101149.19
2022-11-27T01:08:48.184Z,101153.66
2022-11-27T01:11:21.203Z,101151.97
2022-11-27T01:13:48.996Z,101146.91
2022-11-27T01:16:20.231Z,101144.91
2022-11-27T01:18:49.246Z,101138.91
2022-11-27T01:21:20.717Z,101142.25
2022-11-27T01:23:49.554Z,101142.31
2022-11-27T01:26:18.071Z,101152.03
2022-11-27T01:28:45.762Z,101149.22
2022-11-27T01:31:18.827Z,101147.50
2022-11-27T01:33:46.946Z,101151.28
2022-11-27T01:36:15.637Z,101162.50
2022-11-27T01:38:43.164Z,101155.84
2022-11-27T01:41:39.892Z,101160.72
2022-11-27T01:44:25.350Z,101154.69
2022-11-27T01:46:55.766Z,101151.09
2022-11-27T01:49:42.769Z,101141.56
2022-11-27T01:52:16.896Z,101151.38
2022-11-27T01:54:54.936Z,101151.16
2022-11-27T01:57:30.363Z,101152.44
2022-11-27T01:59:59.329Z,101143.50
2022-11-27T02:02:27.424Z,101148.44
2022-11-27T02:04:58.754Z,101154.31
2022-11-27T02:07:26.197Z,101157.75
2022-11-27T02:09:53.656Z,101146.88
2022-11-27T02:12:27.284Z,101161.88
2022-11-27T02:15:01.576Z,101162.75
2022-11-27T02:17:47.663Z,101163.00
2022-11-27T02:20:33.206Z,101159.19
2022-11-27T02:23:22.077Z,101148.53
2022-11-27T02:26:17.922Z,101143.91
2022-11-27T02:29:12.914Z,101143.78
2022-11-27T02:31:44.684Z,101141.06
2022-11-27T02:34:35.784Z,101150.09
2022-11-27T02:37:18.309Z,101156.75
2022-11-27T02:40:18.106Z,101150.88
2022-11-27T02:43:24.420Z,101154.84
2022-11-27T02:45:52.425Z,101159.69
2022-11-27T02:48:24.224Z,101161.56
2022-11-27T02:50:52.658Z,101162.59
2022-11-27T02:53:37.931Z,101164.69
2022-11-27T02:56:08.709Z,101155.94
2022-11-27T02:58:36.503Z,101160.56
2022-11-27T03:01:05.939Z,101153.28
2022-11-27T03:03:36.763Z,101167.50
2022-11-27T03:06:09.696Z,101160.78
2022-11-27T03:08:38.866Z,101158.50
2022-11-27T03:11:09.941Z,101162.56
2022-11-27T03:13:48.907Z,101160.91
2022-11-27T03:16:25.264Z,101167.62
2022-11-27T03:18:59.370Z,101159.47
2022-11-27T03:21:34.950Z,101163.81
2022-11-27T03:24:02.722Z,101164.25
2022-11-27T03:26:30.768Z,101168.34
2022-11-27T03:28:59.966Z,101160.00
2022-11-27T03:31:28.738Z,101168.03
2022-11-27T03:33:56.753Z,101172.47
2022-11-27T03:36:24.094Z,101164.47
2022-11-27T03:38:54.156Z,101172.00
2022-11-27T03:41:55.219Z,101176.44
2022-11-27T03:44:35.803Z,101175.22
2022-11-27T03:47:06.331Z,101183.03
2022-11-27T03:49:43.001Z,101177.75
2022-11-27T03:52:25.008Z,101182.37
2022-11-27T03:55:01.521Z,101182.59
2022-11-27T03:57:34.140Z,101181.44
2022-11-27T04:00:04.867Z,101180.81
2022-11-27T04:03:00.911Z,101178.31
2022-11-27T04:05:28.511Z,101174.97
2022-11-27T04:07:56.812Z,101171.63
2022-11-27T04:10:24.210Z,101172.28
2022-11-27T04:12:51.819Z,101184.22
2022-11-27T04:15:19.144Z,101171.81
2022-11-27T04:17:46.473Z,101170.72
2022-11-27T04:20:14.628Z,101170.16
2022-11-27T04:22:43.153Z,101178.81
2022-11-27T04:25:10.537Z,101177.09
2022-11-27T04:27:38.307Z,101175.53
2022-11-27T04:30:06.157Z,101178.81
2022-11-27T04:32:33.552Z,101171.41
2022-11-27T04:35:01.334Z,101177.34
2022-11-27T04:37:28.766Z,101186.75
2022-11-27T04:39:56.080Z,101171.75
2022-11-27T04:42:23.693Z,101167.72
2022-11-27T04:44:52.552Z,101169.28
2022-11-27T04:47:19.978Z,101171.53
2022-11-27T04:49:47.560Z,101175.56
2022-11-27T04:52:16.941Z,101172.63
2022-11-27T04:54:44.304Z,101173.06
2022-11-27T04:57:11.998Z,101177.09
2022-11-27T04:59:39.413Z,101176.75
2022-11-27T05:02:06.783Z,101174.91
2022-11-27T05:04:34.460Z,101163.13
2022-11-27T05:07:01.810Z,101172.41
2022-11-27T05:09:29.183Z,101172.09
2022-11-27T05:11:56.802Z,101177.78
2022-11-27T05:14:29.181Z,101175.84
2022-11-27T05:16:58.719Z,101171.09
2022-11-27T05:19:28.699Z,101169.91
2022-11-27T05:21:56.441Z,101167.78
2022-11-27T05:24:26.347Z,101173.25
2022-11-27T05:26:54.529Z,101180.28
2022-11-27T05:29:23.341Z,101172.25
2022-11-27T05:31:50.972Z,101168.72
2022-11-27T05:34:18.727Z,101173.28
2022-11-27T05:36:46.536Z,101171.91
2022-11-27T05:39:14.615Z,101173.91
2022-11-27T05:41:43.186Z,101172.28
2022-11-27T05:44:14.667Z,101172.13
2022-11-27T05:46:45.217Z,101164.75
2022-11-27T05:49:14.136Z,101157.72
2022-11-27T05:51:44.182Z,101159.84
2022-11-27T05:54:13.834Z,101164.66
2022-11-27T05:56:41.147Z,101165.41
2022-11-27T05:59:10.211Z,101167.59
2022-11-27T06:01:37.621Z,101167.84
2022-11-27T06:04:05.441Z,101175.22
2022-11-27T06:06:32.779Z,101168.94
2022-11-27T06:09:00.582Z,101169.09
2022-11-27T06:11:28.165Z,101169.91
2022-11-27T06:13:55.508Z,101160.66
2022-11-27T06:16:24.071Z,101176.94
2022-11-27T06:18:53.178Z,101181.22
2022-11-27T06:21:21.750Z,101179.37
2022-11-27T06:23:49.228Z,101185.09
2022-11-27T06:26:19.375Z,101184.06
2022-11-27T06:28:47.593Z,101182.47
2022-11-27T06:31:18.497Z,101187.03
2022-11-27T06:33:47.317Z,101191.38
2022-11-27T06:36:15.166Z,101189.81
2022-11-27T06:38:42.962Z,101187.88
2022-11-27T06:41:13.705Z,101193.06
2022-11-27T06:43:41.175Z,101189.59
2022-11-27T06:46:12.040Z,101193.94
2022-11-27T06:48:39.681Z,101187.16
2022-11-27T06:51:07.785Z,101198.12
2022-11-27T06:53:36.902Z,101197.31
2022-11-27T06:56:06.021Z,101195.75
2022-11-27T06:58:33.380Z,101194.66
2022-11-27T07:01:02.314Z,101196.47
2022-11-27T07:03:30.236Z,101187.16
2022-11-27T07:06:03.238Z,101194.19
2022-11-27T07:08:31.222Z,101189.63
2022-11-27T07:11:03.118Z,101194.31
2022-11-27T07:13:31.381Z,101192.41
2022-11-27T07:16:06.927Z,101180.62
2022-11-27T07:18:45.692Z,101196.69
2022-11-27T07:21:13.574Z,101198.78
2022-11-27T07:23:41.182Z,101200.91
2022-11-27T07:26:11.011Z,101202.78
2022-11-27T07:28:38.618Z,101200.00
2022-11-27T07:31:06.645Z,101195.56
2022-11-27T07:33:34.044Z,101206.16
2022-11-27T07:36:05.134Z,101194.03
2022-11-27T07:38:33.029Z,101205.75
2022-11-27T07:41:01.621Z,101202.06
2022-11-27T07:43:29.548Z,101208.69
2022-11-27T07:45:57.213Z,101205.59
2022-11-27T07:48:25.031Z,101208.97
2022-11-27T07:50:52.369Z,101195.75
2022-11-27T07:53:20.075Z,101196.19
2022-11-27T07:55:47.529Z,101197.31
2022-11-27T07:58:14.875Z,101198.97
2022-11-27T08:00:42.715Z,101200.75
2022-11-27T08:03:10.607Z,101198.75
2022-11-27T08:05:38.151Z,101200.47
2022-11-27T08:08:05.611Z,101196.72
2022-11-27T08:10:37.219Z,101201.81
2022-11-27T08:13:05.535Z,101201.03
2022-11-27T08:15:33.358Z,101205.00
2022-11-27T08:18:00.909Z,101202.22
2022-11-27T08:20:28.478Z,101201.78
2022-11-27T08:23:02.328Z,101204.19
2022-11-27T08:25:30.795Z,101205.75
2022-11-27T08:27:58.397Z,101204.47
2022-11-27T08:30:25.858Z,101215.09
2022-11-27T08:32:53.270Z,101219.47
2022-11-27T08:35:22.543Z,101218.47
2022-11-27T08:37:49.996Z,101221.41
2022-11-27T08:40:17.295Z,101219.87
2022-11-27T08:42:44.876Z,101215.81
2022-11-27T08:45:12.247Z,101220.72
2022-11-27T08:47:39.589Z,101225.62
2022-11-27T08:50:07.913Z,101218.06
2022-11-27T08:52:35.242Z,101216.75
2022-11-27T08:55:02.646Z,101214.94
2022-11-27T08:57:30.247Z,101220.00
2022-11-27T08:59:57.561Z,101223.19
2022-11-27T09:02:24.884Z,101230.72
2022-11-27T09:04:53.455Z,101232.38
2022-11-27T09:07:20.981Z,101237.06
2022-11-27T09:09:48.680Z,101242.28
2022-11-27T09:12:16.317Z,101240.59
2022-11-27T09:14:43.778Z,101237.34
2022-11-27T09:17:11.188Z,101238.56
2022-11-27T09:19:38.766Z,101244.66
2022-11-27T09:22:06.099Z,101237.69
2022-11-27T09:24:33.455Z,101239.81
2022-11-27T09:27:01.043Z,101237.09
2022-11-27T09:29:28.396Z,101235.06
2022-11-27T09:31:55.768Z,101235.97
2022-11-27T09:34:23.370Z,101235.31
2022-11-27T09:36:50.732Z,101230.03
2022-11-27T09:39:19.607Z,101226.66
2022-11-27T09:41:53.591Z,101231.91
2022-11-27T09:44:40.693Z,101225.19
2022-11-27T09:47:27.168Z,101226.03
2022-11-27T09:50:37.199Z,101227.97
2022-11-27T09:53:17.836Z,101227.22
2022-11-27T09:55:48.736Z,101227.94
2022-11-27T09:58:19.180Z,101220.34
2022-11-27T10:00:47.624Z,101218.34
2022-11-27T10:03:18.840Z,101208.00
2022-11-27T10:13:59.564Z,101206.31
2022-11-27T10:16:44.757Z,101204.50
2022-11-27T10:19:33.783Z,101192.84
2022-11-27T10:22:19.683Z,101203.97
2022-11-27T10:25:18.102Z,101190.91
2022-11-27T10:27:58.471Z,101191.47
2022-11-27T10:30:27.200Z,101194.44
2022-11-27T10:32:56.565Z,101190.34
2022-11-27T10:35:29.692Z,101186.75
2022-11-27T10:38:08.520Z,101187.25
2022-11-27T10:40:42.992Z,101193.66
2022-11-27T10:43:14.907Z,101183.75
2022-11-27T10:46:05.120Z,101180.72
2022-11-27T10:48:33.306Z,101181.25
2022-11-27T10:51:00.856Z,101193.06
2022-11-27T10:53:34.159Z,101182.94
2022-11-27T10:56:10.468Z,101176.53
2022-11-27T10:58:56.252Z,101171.72
2022-11-27T11:01:25.673Z,101163.28
2022-11-27T11:04:31.387Z,101156.81
2022-11-27T11:06:55.104Z,101153.47
2022-11-27T11:09:32.845Z,101152.56
2022-11-27T11:12:18.481Z,101152.81
2022-11-27T11:14:54.685Z,101147.16
2022-11-27T11:17:26.295Z,101145.25
2022-11-27T11:19:53.689Z,101147.19
2022-11-27T11:22:21.328Z,101143.13
2022-11-27T11:24:52.885Z,101143.53
2022-11-27T11:27:23.531Z,101139.44
2022-11-27T11:29:53.470Z,101132.19
2022-11-27T11:32:20.698Z,101127.16
2022-11-27T11:35:00.822Z,101122.00
2022-11-27T11:37:34.074Z,101120.28
2022-11-27T11:40:01.288Z,101121.94
2022-11-27T11:42:31.832Z,101118.75
2022-11-27T11:45:11.210Z,101120.34
2022-11-27T11:47:47.003Z,101117.56
2022-11-27T11:50:28.441Z,101113.62
2022-11-27T11:53:02.795Z,101105.50
2022-11-27T11:55:42.593Z,101111.41
2022-11-27T11:58:37.688Z,101112.25
2022-11-27T12:01:33.331Z,101102.75
2022-11-27T12:04:40.665Z,101102.38
2022-11-27T12:07:25.134Z,101102.41
2022-11-27T12:09:58.471Z,101099.03
2022-11-27T12:12:47.385Z,101101.56
2022-11-27T12:15:28.526Z,101102.84
2022-11-27T12:18:03.240Z,101100.88
2022-11-27T12:20:46.476Z,101098.56
2022-11-27T12:23:28.912Z,101089.56
2022-11-27T12:26:17.970Z,101088.81
2022-11-27T12:29:02.364Z,101094.81
2022-11-27T12:31:52.390Z,101093.72
2022-11-27T12:34:28.721Z,101091.03
2022-11-27T12:37:09.881Z,101090.06
2022-11-27T12:39:54.849Z,101084.03
2022-11-27T12:42:47.063Z,101082.44
2022-11-27T12:45:20.287Z,101084.03
2022-11-27T12:48:01.456Z,101089.00
2022-11-27T12:51:06.766Z,101084.81
2022-11-27T12:53:48.505Z,101081.22
2022-11-27T12:56:22.404Z,101081.00
2022-11-27T12:59:08.750Z,101082.22
2022-11-27T13:02:27.650Z,101074.78
2022-11-27T13:05:02.682Z,101080.47
2022-11-27T13:07:44.739Z,101071.94
2022-11-27T13:10:13.984Z,101071.31
2022-11-27T13:13:02.498Z,101069.47
2022-11-27T13:15:38.901Z,101071.88
2022-11-27T13:18:25.581Z,101072.34
2022-11-27T13:20:53.788Z,101066.16
2022-11-27T13:23:21.344Z,101059.78
2022-11-27T13:25:55.056Z,101059.38
2022-11-27T13:28:41.241Z,101067.00
2022-11-27T13:31:09.771Z,101065.59
2022-11-27T13:33:42.904Z,101060.41
2022-11-27T13:36:23.087Z,101059.25
2022-11-27T13:38:58.643Z,101064.88
2022-11-27T13:41:33.556Z,101064.22
2022-11-27T13:44:01.803Z,101062.75
2022-11-27T13:46:30.936Z,101050.47
2022-11-27T13:49:02.319Z,101059.31
2022-11-27T13:51:32.484Z,101057.53
2022-11-27T13:54:13.041Z,101053.91
2022-11-27T13:56:41.133Z,101056.41
2022-11-27T13:59:20.613Z,101057.72
2022-11-27T14:01:59.383Z,101051.69
2022-11-27T14:04:28.450Z,101051.09
2022-11-27T14:07:00.481Z,101055.25
2022-11-27T14:09:41.532Z,101053.91
2022-11-27T14:12:27.185Z,101050.28
2022-11-27T14:15:18.363Z,101065.16
2022-11-27T14:17:47.984Z,101063.63
2022-11-27T14:20:18.747Z,101065.41
2022-11-27T17:43:44.047Z,101037.03
2022-11-27T17:46:17.796Z,101037.03
2022-11-27T17:48:45.830Z,101023.03
2022-11-27T17:51:14.181Z,101024.13
2022-11-27T17:53:43.161Z,101018.69
2022-11-27T17:56:14.170Z,101011.94
2022-11-27T17:58:42.966Z,101003.66
2022-11-27T18:01:17.047Z,100996.50
2022-11-27T18:03:46.837Z,100990.91
2022-11-27T18:06:16.621Z,100994.38
2022-11-27T18:08:45.449Z,100991.47
2022-11-27T18:11:20.523Z,100994.31
2022-11-27T18:13:49.596Z,100995.63
2022-11-27T18:16:29.155Z,100999.63
2022-11-27T18:18:58.590Z,100996.50
2022-11-27T18:21:28.944Z,101001.00
2022-11-27T18:29:36.901Z,100999.41
2022-11-27T18:32:05.625Z,101002.34
2022-11-27T18:34:33.595Z,100996.87
2022-11-27T18:37:01.624Z,100994.31
2022-11-27T18:39:30.247Z,100992.34
2022-11-27T18:41:58.872Z,100987.25
2022-11-27T18:44:27.032Z,100988.12
2022-11-27T18:46:57.603Z,100987.25
2022-11-27T18:49:26.521Z,100991.25
2022-11-27T18:51:54.793Z,100983.22
2022-11-27T18:54:23.008Z,100987.53
2022-11-27T18:56:50.899Z,100993.06
2022-11-27T18:59:19.206Z,100977.84
2022-11-27T19:01:47.518Z,100988.56
2022-11-27T19:04:16.380Z,100979.63
2022-11-27T19:06:45.153Z,100988.88
2022-11-27T19:09:14.838Z,100993.28
2022-11-27T19:11:45.031Z,100989.63
2022-11-27T19:14:13.496Z,100991.19
2022-11-27T19:16:46.750Z,100982.87
2022-11-27T19:19:53.864Z,100992.84
2022-11-27T19:22:10.565Z,100990.97
2022-11-27T19:24:42.804Z,100989.22
2022-11-27T19:27:10.617Z,100990.13
2022-11-27T19:29:39.588Z,100983.59
2022-11-27T19:32:08.475Z,100984.75
2022-11-27T19:34:36.773Z,100990.63
2022-11-27T19:37:05.069Z,100996.69
2022-11-27T19:39:32.703Z,100992.97
2022-11-27T19:42:01.093Z,100996.91
2022-11-27T19:44:29.738Z,100991.53
2022-11-27T19:46:58.976Z,100994.59
2022-11-27T19:49:27.299Z,100991.66
2022-11-27T19:51:55.752Z,100992.69
2022-11-27T19:54:24.462Z,100989.03
2022-11-27T19:56:53.432Z,100981.88
2022-11-27T19:59:25.792Z,100987.75
2022-11-27T20:01:54.419Z,100986.63
2022-11-27T20:04:28.147Z,100976.53
2022-11-27T20:06:58.084Z,100967.09
2022-11-27T20:09:25.928Z,100970.50
2022-11-27T20:11:55.667Z,100973.19
2022-11-27T20:14:23.758Z,100969.81
2022-11-27T20:16:52.260Z,100967.12
2022-11-27T20:19:20.330Z,100967.25
2022-11-27T20:21:49.372Z,100962.25
2022-11-27T20:24:19.213Z,100965.78
2022-11-27T20:26:48.014Z,100962.81
2022-11-27T20:29:16.353Z,100961.63
2022-11-27T20:31:45.187Z,100964.50
2022-11-27T20:34:20.644Z,100964.50
2022-11-27T20:36:50.644Z,100962.28
2022-11-27T20:39:21.610Z,100965.63
2022-11-27T20:41:52.017Z,100952.06
2022-11-27T20:44:22.644Z,100959.91
2022-11-27T20:46:51.059Z,100953.19
2022-11-27T20:49:18.992Z,100953.16
2022-11-27T20:51:50.842Z,100953.44
2022-11-27T20:54:24.005Z,100957.91
2022-11-27T20:56:52.082Z,100963.75
2022-11-27T20:59:20.161Z,100956.13
2022-11-27T21:01:48.479Z,100958.16
2022-11-27T21:04:26.662Z,100952.13
2022-11-27T21:06:55.043Z,100957.03
2022-11-27T21:09:22.549Z,100947.81
2022-11-27T21:11:50.419Z,100956.09
2022-11-27T21:14:20.629Z,100954.72
2022-11-27T21:16:50.750Z,100952.94
2022-11-27T21:19:21.566Z,100951.84
2022-11-27T21:21:51.118Z,100949.37
2022-11-27T21:24:19.955Z,100948.94
2022-11-27T21:26:48.075Z,100938.53
2022-11-27T21:29:16.447Z,100943.97
2022-11-27T21:31:47.176Z,100939.91
2022-11-27T21:34:15.880Z,100947.69
2022-11-27T21:36:45.403Z,100939.06
2022-11-27T21:39:20.093Z,100943.50
2022-11-27T21:41:50.476Z,100943.25
2022-11-27T21:44:18.910Z,100937.03
2022-11-27T21:46:46.955Z,100935.44
2022-11-27T21:49:15.546Z,100946.66
2022-11-27T21:51:43.039Z,100937.06
2022-11-27T21:54:12.951Z,100933.22
2022-11-27T21:56:40.916Z,100935.69
2022-11-27T21:59:10.925Z,100933.22
2022-11-27T22:01:38.414Z,100940.72
2022-11-27T22:04:06.331Z,100936.47
2022-11-27T22:06:38.666Z,100939.72
2022-11-27T22:09:11.882Z,100938.03
2022-11-27T22:11:42.511Z,100930.19
2022-11-27T22:14:10.142Z,100928.72
2022-11-27T22:16:44.908Z,100922.78
2022-11-27T22:19:14.676Z,100928.28
2022-11-27T22:21:42.758Z,100932.50
2022-11-27T22:24:16.521Z,100928.94
2022-11-27T22:26:47.367Z,100932.88
2022-11-27T22:29:17.122Z,100934.34
2022-11-27T22:31:44.516Z,100924.34
2022-11-27T22:34:12.300Z,100935.47
2022-11-27T22:36:40.158Z,100926.91
2022-11-27T22:39:09.079Z,100927.47
2022-11-27T22:41:38.140Z,100925.59
2022-11-27T22:44:14.400Z,100913.00
2022-11-27T22:46:42.651Z,100923.09
2022-11-27T22:49:15.398Z,100921.56
2022-11-27T22:51:43.851Z,100914.56
2022-11-27T22:54:14.945Z,100920.00
2022-11-27T22:56:46.410Z,100916.78
2022-11-27T23:02:02.664Z,100922.00
2022-11-27T23:04:30.234Z,100907.00
2022-11-27T23:06:58.157Z,100906.97
2022-11-27T23:09:26.319Z,100905.72
2022-11-27T23:11:53.876Z,100895.03
2022-11-27T23:14:21.235Z,100899.53
2022-11-27T23:16:49.391Z,100897.97
2022-11-27T23:19:16.793Z,100900.00
2022-11-27T23:21:44.132Z,100892.62
2022-11-27T23:24:15.250Z,100883.66
2022-11-27T23:26:43.752Z,100885.13
2022-11-27T23:29:11.327Z,100872.66
2022-11-27T23:31:40.158Z,100864.56
2022-11-27T23:34:10.699Z,100858.50
2022-11-27T23:36:38.621Z,100856.31
2022-11-27T23:39:07.693Z,100843.56
2022-11-27T23:41:35.027Z,100847.72
2022-11-27T23:44:02.347Z,100849.09
2022-11-27T23:46:30.515Z,100849.03
2022-11-27T23:48:59.656Z,100835.66
2022-11-27T23:51:30.301Z,100840.28
2022-11-27T23:53:58.182Z,100840.22
2022-11-27T23:56:27.994Z,100842.75
2022-11-27T23:58:55.800Z,100842.97
